Terminal Aerodrome Forecast
Issued by NWS Detroit/Pontiac, MI

Home | Current Version | Previous Version | Text Only | Print | Product List | Glossary On
Versions: 1 2 3 4 5 6 7 8 9 10 11 12 13 14 15 16
000
FTUS43 KDTX 302320
TAFFNT
TAF
KFNT 302320Z 3100/3124 08012G18KT 3SM SHRA BR OVC006
      TEMPO 3100/3101 2SM TSRA BR SCT006 OVC015CB
     FM310400 05007KT 2SM -DZ BR OVC005
     FM311000 02007KT 1SM -DZ BR OVC004
     FM311500 36010KT 3SM -DZ BR OVC007=

USA.gov is the U.S. government's official web portal to all federal, state and local government web resources and services.